Creswell, OR (97426)

4:46 PM PDT on September 01, 2014 (GMT -0700)
Fox Hollow at Princess | Change Station
CLOSE
Current Station
Personal Weather Station
Location: Eugene, OR
Elevation: 720 ft
Nearby Weather Stations

Elev 720 ft 44.00 °N, 123.09 °W | Updated 3 minutes ago

Clear
Clear
79.0 °F
Feels Like 79 °F
N
0.0
Wind Variable Wind from ENE
Gusts 3.8 mph

Today
High -- | Low -- °F
--% Chance of Precip.
Yesterday
High -- | Low -- °F
Precip. -- in
6:35 AM 7:47 PM
Waxing Crescent, 45% visible
Pressure 29.98 in
Visibility 10.0 miles
Clouds Few 3000 ft
Heat Index 79 °F
Dew Point 53 °F
Humidity 41%
Rainfall 0.00 in
Snow Depth Not available.
UV 5 out of 12
Pollen 2.90 out of 12
Ozone Good
PM2.5 Good
Flu Activity Not available.
METAR KEUG 012254Z 01011KT 10SM FEW030 29/10 A2998 RMK AO2 SLP152 T02890100

More Conditions Fewer Conditions

Pressure 29.98 in
Visibility 10.0 miles
Clouds Few 3000 ft
Heat Index 79 °F
Dew Point 53 °F
Humidity 41%
Rainfall 0.00 in
Snow Depth Not available.
UV 5 out of 12
Pollen 2.90 out of 12
Ozone Good
PM2.5 Good
Flu Activity Not available.
METAR KEUG 012254Z 01011KT 10SM FEW030 29/10 A2998 RMK AO2 SLP152 T02890100

More Conditions Fewer Conditions

10-Day Weather Forecast

Almanac

Astronomy

Sep. 01, 2014 Rise Set
Actual Time 6:35 AM PDT 7:47 PM PDT
Civil Twilight 6:05 AM PDT 8:17 PM PDT
Nautical Twilight 5:30 AM PDT 8:52 PM PDT
Astronomical Twilight 4:52 AM PDT 9:30 PM PDT
Moon 1:40 PM PDT 11:39 PM PDT
Length of Visible Light 14h 11m
Length of Day
13h 12m
Tomorrow will be 2m 54s shorter.
Waxing Crescent, 45% of the Moon is Illuminated
Today
Waxing Crescent
Sep 2
First Quarter
Sep 8
Full
Sep 15
Last Quarter
Sep 24
New

Today's Extremes

State Highs State Lows

Community

WunderPhotos

Upload Photos

1,749,440 photos uploaded!

Nearby

Air Quality

  Air Quality AQ Index Pollutant
Yesterday Good
PM2.5
Yesterday Good
OZONE
Current Good
PM2.5
Current Good
OZONE
Monday Moderate
PM2.5
Tuesday Good
PM2.5

Snow Depth

Station Depth Elevation
Holland Meadows 0 in 4900 ft
Roaring River 0 in 4900 ft
Irish Taylor 0 in 5500 ft
Mckenzie 0 in 4800 ft
Diamond Lake 0 in 5315 ft

Earthquake Activity

City Distance Mag. Time & Date
No recent earthquake activity has been reported nearby.
Minimum magnitude displayed is 2.5.

Coastal Water Temperatures

Place Temperature
No Stations Reporting

Nearby Weather Stations